Time;durP1;ratioP1;P1;durP2;ratioP2;P2;SDS_P1;SDS_P2;PMS_P1;PMS_P2;Temp;Humidity;BMP_temperature;BMP_pressure;BME280_temperature;BME280_humidity;BME280_pressure;Samples;Min_cycle;Max_cycle;Signal;HPM_P1;HPM_P2
2022/10/13 00:01:34;;;;;;;0.10;0.10;;;;;;;;;;4957317;28;20621;-70
2022/10/13 00:04:02;;;;;;;0.10;0.10;;;;;;;;;;4962661;28;20641;-69
2022/10/13 00:06:31;;;;;;;0.10;0.10;;;;;;;;;;4971843;28;20634;-69
2022/10/13 00:08:59;;;;;;;0.10;0.10;;;;;;;;;;4956417;28;20670;-69
2022/10/13 00:11:27;;;;;;;0.10;0.10;;;;;;;;;;4957395;28;20704;-69
2022/10/13 00:13:56;;;;;;;0.10;0.10;;;;;;;;;;4959032;28;20606;-69
2022/10/13 00:16:23;;;;;;;0.10;0.10;;;;;;;;;;4954698;28;20705;-70
2022/10/13 00:18:51;;;;;;;0.10;0.10;;;;;;;;;;4955683;28;20724;-70
2022/10/13 00:21:20;;;;;;;0.00;0.00;;;;;;;;;;4972998;28;20738;-69
2022/10/13 00:23:50;;;;;;;0.10;0.10;;;;;;;;;;4971007;28;20621;-69
2022/10/13 00:26:20;;;;;;;0.10;0.10;;;;;;;;;;4959287;28;20632;-69
2022/10/13 00:28:47;;;;;;;0.10;0.10;;;;;;;;;;4960219;28;20748;-70
2022/10/13 00:31:17;;;;;;;0.10;0.10;;;;;;;;;;4963395;28;20629;-69
2022/10/13 00:33:45;;;;;;;0.00;0.00;;;;;;;;;;4961494;28;20610;-69
2022/10/13 00:36:13;;;;;;;0.00;0.00;;;;;;;;;;4960534;28;20632;-69
2022/10/13 00:38:40;;;;;;;0.10;0.10;;;;;;;;;;4976782;28;20674;-69
2022/10/13 00:41:09;;;;;;;0.00;0.00;;;;;;;;;;4962429;28;20722;-69
2022/10/13 00:43:51;;;;;;;0.07;0.07;;;;;;;;;;4978301;28;20640;-69
2022/10/13 00:46:19;;;;;;;0.00;0.00;;;;;;;;;;4961990;28;20621;-70
2022/10/13 00:48:47;;;;;;;0.10;0.10;;;;;;;;;;4963637;28;20638;-69
2022/10/13 00:51:16;;;;;;;0.10;0.10;;;;;;;;;;4961009;28;20626;-70
2022/10/13 00:53:44;;;;;;;0.10;0.10;;;;;;;;;;4975282;28;20760;-69
2022/10/13 00:56:13;;;;;;;0.10;0.10;;;;;;;;;;4975747;28;20630;-70
2022/10/13 00:58:42;;;;;;;0.00;0.00;;;;;;;;;;4963565;28;20669;-70
2022/10/13 01:01:10;;;;;;;0.00;0.00;;;;;;;;;;4962791;28;20650;-69
2022/10/13 01:03:38;;;;;;;0.10;0.10;;;;;;;;;;4962222;28;20649;-69
2022/10/13 01:06:06;;;;;;;0.10;0.10;;;;;;;;;;4960537;28;20736;-69
2022/10/13 01:08:33;;;;;;;0.10;0.10;;;;;;;;;;4959155;28;20657;-69
2022/10/13 01:11:08;;;;;;;0.10;0.10;;;;;;;;;;4961077;28;20616;-69
2022/10/13 01:13:41;;;;;;;0.00;0.00;;;;;;;;;;4977274;28;20625;-67
2022/10/13 01:16:11;;;;;;;0.10;0.10;;;;;;;;;;4958782;28;20768;-66
2022/10/13 01:18:45;;;;;;;0.10;0.10;;;;;;;;;;4961651;28;20751;-66
2022/10/13 01:21:19;;;;;;;0.10;0.10;;;;;;;;;;4974734;28;20626;-67
2022/10/13 01:23:57;;;;;;;0.10;0.10;;;;;;;;;;4961681;28;20673;-68
2022/10/13 01:26:33;;;;;;;0.10;0.10;;;;;;;;;;4960247;28;20613;-68
2022/10/13 01:29:11;;;;;;;0.00;0.00;;;;;;;;;;4961325;28;20655;-67
2022/10/13 01:31:45;;;;;;;0.00;0.00;;;;;;;;;;4963072;28;20633;-67
2022/10/13 01:34:17;;;;;;;0.00;0.00;;;;;;;;;;4959113;28;20665;-67
2022/10/13 01:36:51;;;;;;;0.10;0.10;;;;;;;;;;4961467;28;20605;-67
2022/10/13 01:39:24;;;;;;;0.10;0.10;;;;;;;;;;4973934;28;20743;-66
2022/10/13 01:41:52;;;;;;;0.00;0.00;;;;;;;;;;4960927;28;20620;-67
2022/10/13 01:44:23;;;;;;;0.10;0.10;;;;;;;;;;4961449;28;20697;-67
2022/10/13 01:46:55;;;;;;;0.10;0.10;;;;;;;;;;4959657;28;20710;-66
2022/10/13 01:49:24;;;;;;;0.00;0.00;;;;;;;;;;4977032;28;20658;-67
2022/10/13 01:51:52;;;;;;;0.10;0.10;;;;;;;;;;4978281;28;20710;-67
2022/10/13 01:54:19;;;;;;;0.00;0.00;;;;;;;;;;4959851;28;20613;-66
2022/10/13 01:56:52;;;;;;;0.10;0.10;;;;;;;;;;4960464;28;20613;-67
2022/10/13 01:59:20;;;;;;;0.10;0.10;;;;;;;;;;4962142;28;20691;-67
2022/10/13 02:01:58;;;;;;;0.10;0.10;;;;;;;;;;4976925;28;20736;-66
2022/10/13 02:04:29;;;;;;;0.10;0.10;;;;;;;;;;4976016;28;20684;-67
2022/10/13 02:07:01;;;;;;;0.10;0.10;;;;;;;;;;4974353;28;20648;-67
2022/10/13 02:09:35;;;;;;;0.10;0.10;;;;;;;;;;4977039;28;21266;-66
2022/10/13 02:12:06;;;;;;;0.10;0.10;;;;;;;;;;4959660;28;20630;-66
2022/10/13 02:14:35;;;;;;;0.10;0.10;;;;;;;;;;4976463;28;20636;-67
2022/10/13 02:17:05;;;;;;;0.10;0.10;;;;;;;;;;4961672;28;20664;-66
2022/10/13 02:19:36;;;;;;;0.10;0.10;;;;;;;;;;4973592;28;20728;-67
2022/10/13 02:22:03;;;;;;;0.00;0.00;;;;;;;;;;4958826;28;20626;-67
2022/10/13 02:24:31;;;;;;;0.10;0.10;;;;;;;;;;4974224;28;20644;-67
2022/10/13 02:26:58;;;;;;;0.10;0.10;;;;;;;;;;4965671;28;20668;-66
2022/10/13 02:29:26;;;;;;;0.10;0.10;;;;;;;;;;4961333;28;20650;-66
2022/10/13 02:31:53;;;;;;;0.10;0.10;;;;;;;;;;4960766;28;20613;-66
2022/10/13 02:34:22;;;;;;;0.10;0.10;;;;;;;;;;4974169;28;20996;-66
2022/10/13 02:36:50;;;;;;;0.00;0.00;;;;;;;;;;4965079;28;20656;-65
2022/10/13 02:39:17;;;;;;;0.10;0.10;;;;;;;;;;4965384;28;20665;-66
2022/10/13 02:41:45;;;;;;;0.10;0.10;;;;;;;;;;4962871;28;20624;-66
2022/10/13 02:44:12;;;;;;;0.10;0.10;;;;;;;;;;4975120;28;20684;-67
2022/10/13 02:46:43;;;;;;;0.00;0.00;;;;;;;;;;4961651;28;20637;-66
2022/10/13 02:49:11;;;;;;;0.10;0.10;;;;;;;;;;4961189;28;21020;-67
2022/10/13 02:51:40;;;;;;;0.10;0.10;;;;;;;;;;4974752;28;20643;-67
2022/10/13 02:54:07;;;;;;;0.10;0.10;;;;;;;;;;4961400;28;20617;-66
2022/10/13 02:56:34;;;;;;;0.10;0.10;;;;;;;;;;4974391;28;20633;-67
2022/10/13 02:59:02;;;;;;;0.10;0.10;;;;;;;;;;4959322;28;20669;-65
2022/10/13 03:01:29;;;;;;;0.10;0.10;;;;;;;;;;4961139;28;20622;-66
2022/10/13 03:03:57;;;;;;;0.10;0.10;;;;;;;;;;4964436;28;20729;-67
2022/10/13 03:06:24;;;;;;;0.10;0.10;;;;;;;;;;4962212;28;20616;-64
2022/10/13 03:08:53;;;;;;;0.00;0.00;;;;;;;;;;4973261;28;20690;-67
2022/10/13 03:11:29;;;;;;;0.10;0.10;;;;;;;;;;5086112;27;20781;-65
2022/10/13 03:13:57;;;;;;;0.10;0.10;;;;;;;;;;5092289;28;20600;-64
2022/10/13 03:16:24;;;;;;;0.10;0.10;;;;;;;;;;5087456;28;20640;-64
2022/10/13 03:18:52;;;;;;;0.10;0.10;;;;;;;;;;5088727;28;20712;-65
2022/10/13 03:21:19;;;;;;;0.10;0.10;;;;;;;;;;5089759;28;20604;-65
2022/10/13 03:23:47;;;;;;;0.10;0.10;;;;;;;;;;5087625;28;20619;-64
2022/10/13 03:26:15;;;;;;;0.10;0.10;;;;;;;;;;5094953;28;20668;-65
2022/10/13 03:28:44;;;;;;;0.00;0.00;;;;;;;;;;5088183;28;20659;-64
2022/10/13 03:31:12;;;;;;;0.10;0.10;;;;;;;;;;5089738;28;20751;-64
2022/10/13 03:33:40;;;;;;;0.10;0.10;;;;;;;;;;5088970;28;20619;-66
2022/10/13 03:36:08;;;;;;;0.10;0.10;;;;;;;;;;5091226;28;20705;-66
2022/10/13 03:38:36;;;;;;;0.10;0.10;;;;;;;;;;5092346;28;20651;-65
2022/10/13 03:41:07;;;;;;;0.00;0.00;;;;;;;;;;5089015;28;20627;-66
2022/10/13 03:43:34;;;;;;;0.10;0.10;;;;;;;;;;5121150;27;20643;-66
2022/10/13 03:46:04;;;;;;;0.10;0.10;;;;;;;;;;5088478;28;21032;-66
2022/10/13 03:48:31;;;;;;;0.10;0.10;;;;;;;;;;5087802;28;20656;-65
2022/10/13 03:50:59;;;;;;;0.10;0.10;;;;;;;;;;5086577;28;20662;-66
2022/10/13 03:53:26;;;;;;;0.00;0.00;;;;;;;;;;5088189;28;20652;-69
2022/10/13 03:55:55;;;;;;;0.00;0.00;;;;;;;;;;5090105;28;20679;-70
2022/10/13 03:58:23;;;;;;;0.10;0.10;;;;;;;;;;5088091;28;20726;-68
2022/10/13 04:00:53;;;;;;;0.10;0.10;;;;;;;;;;5089266;28;20582;-68
2022/10/13 04:03:23;;;;;;;0.10;0.10;;;;;;;;;;5085865;28;20611;-70
2022/10/13 04:05:50;;;;;;;0.10;0.10;;;;;;;;;;5086366;28;20947;-69
2022/10/13 04:08:19;;;;;;;0.10;0.10;;;;;;;;;;5088189;28;20641;-68
2022/10/13 04:10:47;;;;;;;0.00;0.00;;;;;;;;;;5084627;28;20656;-69
2022/10/13 04:13:14;;;;;;;0.00;0.00;;;;;;;;;;5087605;28;20632;-68
2022/10/13 04:15:42;;;;;;;0.10;0.10;;;;;;;;;;5083914;28;20601;-69
2022/10/13 04:18:11;;;;;;;0.10;0.10;;;;;;;;;;5086802;28;20656;-68
2022/10/13 04:20:40;;;;;;;0.10;0.10;;;;;;;;;;5091527;28;20616;-70
2022/10/13 04:23:08;;;;;;;0.00;0.00;;;;;;;;;;5079745;28;20678;-70
2022/10/13 04:25:40;;;;;;;0.10;0.10;;;;;;;;;;5072474;28;20636;-69
2022/10/13 04:28:08;;;;;;;0.10;0.10;;;;;;;;;;5073210;28;20764;-69
2022/10/13 04:30:37;;;;;;;0.10;0.10;;;;;;;;;;5070610;28;20662;-68
2022/10/13 04:33:04;;;;;;;0.00;0.00;;;;;;;;;;5071400;28;21268;-68
2022/10/13 04:35:32;;;;;;;0.00;0.00;;;;;;;;;;5073709;28;20661;-70
2022/10/13 04:38:01;;;;;;;0.10;0.10;;;;;;;;;;5071885;28;20750;-69
2022/10/13 04:40:28;;;;;;;0.10;0.10;;;;;;;;;;5106746;27;20638;-70
2022/10/13 04:42:55;;;;;;;0.10;0.10;;;;;;;;;;5070213;28;20617;-69
2022/10/13 04:45:23;;;;;;;0.00;0.00;;;;;;;;;;5071963;28;20679;-70
2022/10/13 04:47:51;;;;;;;0.10;0.10;;;;;;;;;;5074733;28;20640;-68
2022/10/13 04:50:22;;;;;;;0.10;0.10;;;;;;;;;;5079899;28;20781;-69
2022/10/13 04:53:00;;;;;;;0.10;0.10;;;;;;;;;;5072918;28;20619;-71
2022/10/13 04:55:28;;;;;;;0.10;0.10;;;;;;;;;;5074698;28;20623;-68
2022/10/13 04:57:55;;;;;;;0.10;0.10;;;;;;;;;;5069485;28;20746;-69
2022/10/13 05:00:23;;;;;;;0.10;0.10;;;;;;;;;;5071157;28;21266;-69
2022/10/13 05:02:50;;;;;;;0.10;0.10;;;;;;;;;;5073423;28;20623;-68
2022/10/13 05:05:18;;;;;;;0.10;0.10;;;;;;;;;;5072238;28;20627;-68
2022/10/13 05:07:45;;;;;;;0.00;0.00;;;;;;;;;;5105666;27;20649;-68
2022/10/13 05:10:14;;;;;;;0.10;0.10;;;;;;;;;;5075146;28;20668;-68
2022/10/13 05:12:41;;;;;;;0.10;0.10;;;;;;;;;;5074283;28;20774;-68
2022/10/13 05:15:09;;;;;;;0.10;0.10;;;;;;;;;;5104300;27;20724;-71
2022/10/13 05:17:37;;;;;;;0.10;0.10;;;;;;;;;;5069083;28;20705;-69
2022/10/13 05:20:08;;;;;;;0.10;0.10;;;;;;;;;;5075646;28;20674;-68
2022/10/13 05:22:36;;;;;;;0.10;0.10;;;;;;;;;;5076611;28;20628;-70
2022/10/13 05:25:04;;;;;;;0.10;0.10;;;;;;;;;;5069988;28;20676;-68
2022/10/13 05:27:32;;;;;;;0.10;0.10;;;;;;;;;;5070881;28;20660;-70
2022/10/13 05:30:04;;;;;;;0.10;0.10;;;;;;;;;;5070373;28;20640;-69
2022/10/13 05:32:31;;;;;;;0.10;0.10;;;;;;;;;;5069149;28;20623;-69
2022/10/13 05:34:59;;;;;;;0.10;0.10;;;;;;;;;;5070327;28;20628;-69
2022/10/13 05:37:26;;;;;;;0.10;0.10;;;;;;;;;;5070915;28;20718;-69
2022/10/13 05:39:54;;;;;;;0.00;0.00;;;;;;;;;;5104686;27;20625;-69
2022/10/13 05:42:21;;;;;;;0.10;0.10;;;;;;;;;;5068777;28;20637;-69
2022/10/13 05:44:50;;;;;;;0.00;0.00;;;;;;;;;;5068441;28;20716;-69
2022/10/13 05:47:17;;;;;;;0.10;0.10;;;;;;;;;;5063091;28;20667;-68
2022/10/13 05:49:45;;;;;;;0.10;0.10;;;;;;;;;;5068177;28;20607;-69
2022/10/13 05:52:13;;;;;;;0.00;0.00;;;;;;;;;;5070774;28;20733;-68
2022/10/13 05:54:42;;;;;;;0.00;0.00;;;;;;;;;;5052683;28;20735;-69
2022/10/13 05:57:13;;;;;;;0.10;0.10;;;;;;;;;;5066809;28;20636;-69
2022/10/13 05:59:42;;;;;;;0.10;0.10;;;;;;;;;;5068226;28;20978;-69
2022/10/13 06:02:12;;;;;;;0.10;0.10;;;;;;;;;;5068004;28;20638;-69
2022/10/13 06:04:42;;;;;;;0.10;0.10;;;;;;;;;;5065866;28;21168;-69
2022/10/13 06:07:10;;;;;;;0.10;0.10;;;;;;;;;;5065069;28;20661;-69
2022/10/13 06:09:38;;;;;;;0.10;0.10;;;;;;;;;;5068988;28;20620;-69
2022/10/13 06:12:06;;;;;;;0.10;0.10;;;;;;;;;;5052416;28;20763;-69
2022/10/13 06:14:33;;;;;;;0.10;0.10;;;;;;;;;;5065786;28;20608;-69
2022/10/13 06:17:04;;;;;;;0.10;0.10;;;;;;;;;;5068569;28;20669;-69
2022/10/13 06:19:33;;;;;;;0.10;0.10;;;;;;;;;;5064592;28;20613;-69
2022/10/13 06:22:07;;;;;;;0.10;0.10;;;;;;;;;;5067280;28;20611;-69
2022/10/13 06:24:34;;;;;;;0.10;0.10;;;;;;;;;;5064893;28;20641;-69
2022/10/13 06:27:04;;;;;;;0.00;0.00;;;;;;;;;;5067687;28;20715;-69
2022/10/13 06:29:32;;;;;;;0.10;0.10;;;;;;;;;;5062641;28;20627;-69
2022/10/13 06:32:00;;;;;;;0.10;0.10;;;;;;;;;;5068343;28;20658;-69
2022/10/13 06:34:27;;;;;;;0.00;0.00;;;;;;;;;;5065835;28;20608;-70
2022/10/13 06:36:57;;;;;;;0.10;0.10;;;;;;;;;;5064881;28;20659;-69
2022/10/13 06:39:25;;;;;;;0.10;0.10;;;;;;;;;;5064483;28;20621;-69
2022/10/13 06:41:54;;;;;;;0.10;0.10;;;;;;;;;;5063839;28;20637;-69
2022/10/13 06:44:30;;;;;;;0.10;0.10;;;;;;;;;;5065508;28;20616;-70
2022/10/13 06:47:02;;;;;;;0.10;0.10;;;;;;;;;;5095179;27;20632;-69
2022/10/13 06:49:30;;;;;;;0.10;0.10;;;;;;;;;;5065889;28;20629;-69
2022/10/13 06:51:59;;;;;;;0.00;0.00;;;;;;;;;;5066140;28;20654;-69
2022/10/13 06:54:26;;;;;;;0.10;0.10;;;;;;;;;;5068614;28;20618;-68
2022/10/13 06:56:53;;;;;;;0.00;0.00;;;;;;;;;;5063565;28;20632;-70
2022/10/13 06:59:21;;;;;;;0.10;0.10;;;;;;;;;;5065540;28;20632;-71
2022/10/13 07:01:49;;;;;;;0.10;0.10;;;;;;;;;;5064064;28;20617;-69
2022/10/13 07:04:18;;;;;;;0.10;0.10;;;;;;;;;;5063302;28;20632;-70
2022/10/13 07:06:45;;;;;;;0.10;0.10;;;;;;;;;;5061216;28;20628;-69
2022/10/13 07:09:14;;;;;;;0.10;0.10;;;;;;;;;;5065241;28;20616;-69
2022/10/13 07:11:44;;;;;;;0.10;0.10;;;;;;;;;;5064196;28;20748;-70
2022/10/13 07:14:11;;;;;;;0.00;0.00;;;;;;;;;;5066205;28;20664;-69
2022/10/13 07:16:39;;;;;;;0.10;0.10;;;;;;;;;;5065841;28;20621;-68
2022/10/13 07:19:06;;;;;;;0.10;0.10;;;;;;;;;;5054087;28;20679;-70
2022/10/13 07:21:33;;;;;;;0.00;0.00;;;;;;;;;;5064448;28;20604;-69
2022/10/13 07:24:02;;;;;;;0.10;0.10;;;;;;;;;;5065023;28;20627;-69
2022/10/13 07:26:32;;;;;;;0.10;0.10;;;;;;;;;;5064663;28;20679;-69
2022/10/13 07:29:01;;;;;;;0.10;0.10;;;;;;;;;;5066714;28;20636;-69
2022/10/13 07:31:28;;;;;;;0.10;0.10;;;;;;;;;;5063991;28;20644;-69
2022/10/13 07:33:56;;;;;;;0.10;0.10;;;;;;;;;;5067144;28;20651;-69
2022/10/13 07:36:27;;;;;;;0.10;0.10;;;;;;;;;;5065896;28;20615;-70
2022/10/13 07:38:55;;;;;;;0.10;0.10;;;;;;;;;;5064611;28;20784;-70
2022/10/13 07:41:22;;;;;;;0.10;0.10;;;;;;;;;;5064213;28;20600;-69
2022/10/13 07:43:56;;;;;;;0.10;0.10;;;;;;;;;;5066341;28;20628;-69
2022/10/13 07:46:24;;;;;;;0.10;0.10;;;;;;;;;;5065596;28;20622;-69
2022/10/13 07:48:52;;;;;;;0.10;0.10;;;;;;;;;;5063002;28;21243;-69
2022/10/13 07:51:20;;;;;;;0.10;0.10;;;;;;;;;;5065634;28;20705;-69
2022/10/13 07:53:47;;;;;;;0.10;0.10;;;;;;;;;;5064161;28;20202;-69
2022/10/13 07:56:16;;;;;;;0.00;0.00;;;;;;;;;;5062054;28;20617;-70
2022/10/13 07:58:44;;;;;;;0.10;0.10;;;;;;;;;;5065469;28;20682;-70
2022/10/13 08:01:13;;;;;;;0.10;0.10;;;;;;;;;;5101389;27;20651;-70
2022/10/13 08:03:40;;;;;;;0.10;0.10;;;;;;;;;;5104963;27;20631;-69
2022/10/13 08:06:08;;;;;;;0.10;0.10;;;;;;;;;;5069613;28;20265;-70
2022/10/13 08:08:36;;;;;;;0.00;0.00;;;;;;;;;;5068769;28;20226;-70
2022/10/13 08:11:04;;;;;;;0.10;0.10;;;;;;;;;;5065715;28;20238;-70
2022/10/13 08:13:34;;;;;;;0.10;0.10;;;;;;;;;;5067676;28;20302;-70
2022/10/13 08:16:14;;;;;;;0.10;0.10;;;;;;;;;;5069941;28;20275;-69
2022/10/13 08:18:42;;;;;;;0.10;0.10;;;;;;;;;;5073742;28;20276;-69
2022/10/13 08:21:10;;;;;;;0.10;0.10;;;;;;;;;;5075591;28;20201;-70
2022/10/13 08:23:37;;;;;;;0.10;0.10;;;;;;;;;;5067330;28;20259;-69
2022/10/13 08:26:05;;;;;;;0.10;0.10;;;;;;;;;;5069386;28;20206;-69
2022/10/13 08:28:34;;;;;;;0.00;0.00;;;;;;;;;;5067713;28;20222;-69
2022/10/13 08:31:02;;;;;;;0.10;0.10;;;;;;;;;;5068688;28;20218;-69
2022/10/13 08:33:31;;;;;;;0.10;0.10;;;;;;;;;;5067486;28;20233;-70
2022/10/13 08:35:58;;;;;;;0.10;0.10;;;;;;;;;;5066283;28;20194;-69
2022/10/13 08:38:27;;;;;;;0.10;0.10;;;;;;;;;;5067396;28;20226;-69
2022/10/13 08:40:54;;;;;;;0.10;0.10;;;;;;;;;;5066302;28;20264;-69
2022/10/13 08:43:23;;;;;;;0.10;0.10;;;;;;;;;;5068462;28;20218;-69
2022/10/13 08:45:51;;;;;;;0.10;0.10;;;;;;;;;;5065055;28;20210;-69
2022/10/13 08:48:20;;;;;;;0.10;0.10;;;;;;;;;;5066455;28;20240;-69
2022/10/13 08:50:51;;;;;;;0.10;0.10;;;;;;;;;;5068034;28;20206;-69
2022/10/13 08:53:21;;;;;;;0.10;0.10;;;;;;;;;;5068120;28;20234;-69
2022/10/13 08:55:52;;;;;;;0.10;0.10;;;;;;;;;;5067303;28;20194;-69
2022/10/13 08:58:23;;;;;;;0.10;0.10;;;;;;;;;;5067021;28;20227;-69
2022/10/13 09:00:52;;;;;;;0.10;0.10;;;;;;;;;;5066584;28;20205;-69
2022/10/13 09:03:24;;;;;;;0.10;0.10;;;;;;;;;;5066630;28;20209;-71
2022/10/13 09:06:00;;;;;;;0.00;0.00;;;;;;;;;;5065783;28;20194;-68
2022/10/13 09:08:29;;;;;;;0.00;0.00;;;;;;;;;;5069386;28;20226;-69
2022/10/13 09:10:56;;;;;;;0.10;0.10;;;;;;;;;;5065754;28;20214;-69
2022/10/13 09:13:26;;;;;;;0.10;0.10;;;;;;;;;;5069497;28;20195;-69
2022/10/13 09:15:55;;;;;;;0.00;0.00;;;;;;;;;;5067958;28;20205;-70
2022/10/13 09:18:28;;;;;;;0.10;0.10;;;;;;;;;;5070874;28;20245;-69
2022/10/13 09:21:09;;;;;;;0.10;0.10;;;;;;;;;;5085589;28;20666;-70
2022/10/13 09:23:37;;;;;;;0.10;0.10;;;;;;;;;;5065975;28;20273;-70
2022/10/13 09:26:07;;;;;;;0.00;0.00;;;;;;;;;;5070938;28;20195;-70
2022/10/13 09:28:35;;;;;;;0.10;0.10;;;;;;;;;;5100574;27;20241;-69
2022/10/13 09:31:04;;;;;;;0.00;0.00;;;;;;;;;;5069117;28;20202;-69
2022/10/13 09:33:35;;;;;;;0.10;0.10;;;;;;;;;;5068225;28;20216;-69
2022/10/13 09:36:11;;;;;;;0.07;0.07;;;;;;;;;;5066836;28;20256;-69
2022/10/13 09:38:40;;;;;;;0.07;0.07;;;;;;;;;;5065871;28;20226;-69
2022/10/13 09:41:12;;;;;;;0.10;0.10;;;;;;;;;;5066083;28;20317;-70
2022/10/13 09:43:42;;;;;;;0.10;0.10;;;;;;;;;;5066407;28;20202;-67
2022/10/13 09:46:13;;;;;;;0.00;0.00;;;;;;;;;;5069290;28;20561;-65
2022/10/13 09:48:44;;;;;;;0.00;0.00;;;;;;;;;;5068035;28;20253;-67
2022/10/13 09:51:28;;;;;;;0.10;0.10;;;;;;;;;;5069090;28;20222;-66
2022/10/13 09:53:55;;;;;;;0.10;0.10;;;;;;;;;;5086626;28;20205;-67
2022/10/13 09:56:26;;;;;;;0.10;0.10;;;;;;;;;;5067921;28;20206;-67
2022/10/13 09:58:55;;;;;;;0.00;0.00;;;;;;;;;;5071781;28;20251;-67
2022/10/13 10:01:25;;;;;;;0.10;0.10;;;;;;;;;;5065685;28;20198;-68
2022/10/13 10:03:54;;;;;;;0.00;0.00;;;;;;;;;;5070393;28;20208;-70
2022/10/13 10:06:21;;;;;;;0.10;0.10;;;;;;;;;;5064808;28;20203;-67
2022/10/13 10:08:54;;;;;;;0.10;0.10;;;;;;;;;;5069112;28;20324;-67
2022/10/13 10:11:27;;;;;;;0.00;0.00;;;;;;;;;;5063087;28;20263;-67
2022/10/13 10:13:55;;;;;;;0.00;0.00;;;;;;;;;;5099112;27;20198;-66
2022/10/13 10:16:29;;;;;;;0.00;0.00;;;;;;;;;;5074390;28;20202;-66
2022/10/13 10:18:59;;;;;;;0.00;0.00;;;;;;;;;;5065573;28;20242;-67
2022/10/13 10:21:31;;;;;;;0.00;0.00;;;;;;;;;;5064781;28;20206;-66
2022/10/13 10:24:07;;;;;;;0.00;0.00;;;15.70;99.90;;;;;;5069657;28;20196;-70
2022/10/13 10:26:40;;;;;;;0.00;0.00;;;;;;;;;;5069156;28;20212;-70
2022/10/13 10:29:17;;;;;;;0.10;0.10;;;;;;;;;;5069188;28;20222;-67
2022/10/13 10:31:54;;;;;;;0.00;0.00;;;;;;;;;;5099740;27;20240;-66
2022/10/13 10:34:29;;;;;;;0.00;0.00;;;;;;;;;;5067201;28;20202;-68
2022/10/13 10:37:05;;;;;;;0.00;0.00;;;;;;;;;;5065650;28;20198;-69
2022/10/13 10:39:41;;;;;;;0.00;0.00;;;;;;;;;;5065304;28;20205;-67
2022/10/13 10:42:20;;;;;;;0.00;0.00;;;17.00;99.90;;;;;;5063350;28;20301;-68
2022/10/13 10:44:51;;;;;;;0.00;0.00;;;;;;;;;;5098855;27;20242;-68
2022/10/13 10:47:21;;;;;;;0.00;0.00;;;;;;;;;;5064514;28;20210;-67
2022/10/13 10:49:49;;;;;;;0.00;0.00;;;;;;;;;;5060735;28;20237;-67
2022/10/13 10:52:21;;;;;;;0.00;0.00;;;;;;;;;;5066546;28;20206;-68
2022/10/13 10:55:04;;;;;;;0.00;0.00;;;;;;;;;;5066483;28;20202;-68
2022/10/13 10:57:35;;;;;;;0.00;0.00;;;;;;;;;;5068106;28;20231;-68
2022/10/13 11:00:05;;;;;;;0.00;0.00;;;;;;;;;;5070484;28;20199;-69
2022/10/13 11:02:44;;;;;;;0.00;0.00;;;;;;;;;;5063646;28;20194;-68
2022/10/13 11:05:11;;;;;;;0.00;0.00;;;;;;;;;;5067039;28;20194;-67
2022/10/13 11:07:55;;;;;;;0.00;0.00;;;;;;;;;;5070302;28;20232;-68
2022/10/13 11:10:26;;;;;;;0.00;0.00;;;;;;;;;;5065006;28;20202;-68
2022/10/13 11:13:26;;;;;;;0.00;0.00;;;;;;;;;;5067015;28;20248;-69
2022/10/13 11:15:54;;;;;;;0.00;0.00;;;;;;;;;;5066601;28;20200;-67
2022/10/13 11:18:40;;;;;;;0.00;0.00;;;;;;;;;;5067106;28;20233;-68
2022/10/13 11:21:07;;;;;;;0.00;0.00;;;;;;;;;;5065920;28;20208;-68
2022/10/13 11:23:44;;;;;;;0.00;0.00;;;;;;;;;;5069154;28;20204;-68
2022/10/13 11:26:30;;;;;;;0.00;0.00;;;;;;;;;;5070019;28;20201;-67
2022/10/13 11:28:59;;;;;;;0.00;0.00;;;;;;;;;;5066517;28;20226;-68
2022/10/13 11:31:28;;;;;;;0.00;0.00;;;;;;;;;;5066873;28;20215;-68
2022/10/13 11:33:56;;;;;;;0.00;0.00;;;;;;;;;;5067152;28;20221;-68
2022/10/13 11:36:54;;;;;;;0.00;0.00;;;;;;;;;;5101505;27;20706;-68
2022/10/13 11:39:40;;;;;;;0.00;0.00;;;;;;;;;;5085632;28;20206;-67
2022/10/13 11:42:18;;;;;;;0.00;0.00;;;;;;;;;;5066153;28;20268;-68
2022/10/13 11:44:51;;;;;;;0.00;0.00;;;;;;;;;;5100059;27;20206;-68
2022/10/13 11:47:25;;;;;;;0.00;0.00;;;;;;;;;;5069613;28;20226;-68
2022/10/13 11:50:01;;;;;;;0.00;0.00;;;;;;;;;;5072176;28;20194;-67
2022/10/13 11:52:41;;;;;;;0.00;0.00;;;;;;;;;;5070400;28;20765;-68
2022/10/13 11:55:13;;;;;;;0.00;0.00;;;;;;;;;;5068845;28;20202;-68
2022/10/13 11:57:40;;;;;;;0.00;0.00;;;;;;;;;;5071747;28;20218;-67
2022/10/13 12:00:14;;;;;;;0.00;0.00;;;;;;;;;;5070452;28;20195;-67
2022/10/13 12:02:48;;;;;;;0.00;0.00;;;;;;;;;;5072957;28;20205;-67
2022/10/13 12:05:27;;;;;;;0.00;0.00;;;;;;;;;;5067475;28;20674;-68
2022/10/13 12:07:55;;;;;;;0.00;0.00;;;;;;;;;;5065913;28;20279;-67
2022/10/13 12:10:25;;;;;;;0.00;0.00;;;;;;;;;;5069353;28;20290;-68
2022/10/13 12:12:53;;;;;;;0.00;0.00;;;;;;;;;;5069595;28;20218;-68
2022/10/13 12:15:31;;;;;;;0.00;0.00;;;;;;;;;;5069457;28;20205;-69
2022/10/13 12:17:58;;;;;;;0.00;0.00;;;18.60;99.90;;;;;;5069220;28;20213;-68
2022/10/13 12:20:31;;;;;;;0.00;0.00;;;19.40;99.90;;;;;;5068877;28;20198;-67
2022/10/13 12:22:58;;;;;;;0.00;0.00;;;19.40;99.90;;;;;;5074559;28;20277;-68
2022/10/13 12:25:28;;;;;;;0.00;0.00;;;19.40;99.90;;;;;;5069713;28;20197;-68
2022/10/13 12:27:59;;;;;;;0.00;0.00;;;19.40;99.90;;;;;;5068769;28;20222;-67
2022/10/13 12:30:29;;;;;;;0.00;0.00;;;19.40;99.90;;;;;;5068321;28;20213;-68
2022/10/13 12:32:59;;;;;;;0.00;0.00;;;19.20;99.90;;;;;;5069803;28;20221;-67
2022/10/13 12:35:28;;;;;;;0.00;0.00;;;19.10;99.90;;;;;;5063956;28;20252;-67
2022/10/13 12:37:56;;;;;;;0.00;0.00;;;19.10;99.90;;;;;;5055276;28;20218;-68
2022/10/13 12:40:24;;;;;;;0.00;0.00;;;19.10;99.90;;;;;;5069598;28;20211;-68
2022/10/13 12:42:52;;;;;;;0.00;0.00;;;18.90;99.90;;;;;;5068845;28;20190;-67
2022/10/13 12:45:21;;;;;;;0.00;0.00;;;19.00;99.90;;;;;;5070007;28;20206;-68
2022/10/13 12:47:51;;;;;;;0.00;0.00;;;18.80;99.90;;;;;;5065161;28;20249;-68
2022/10/13 12:50:38;;;;;;;0.00;0.00;;;18.80;99.90;;;;;;5068523;28;20224;-68
2022/10/13 12:53:18;;;;;;;0.00;0.00;;;18.80;99.90;;;;;;5067074;28;20222;-68
2022/10/13 12:55:49;;;;;;;0.00;0.00;;;18.60;99.90;;;;;;5070936;28;20223;-69
2022/10/13 12:58:21;;;;;;;0.00;0.00;;;18.70;99.90;;;;;;5067541;28;20223;-68
2022/10/13 13:00:57;;;;;;;0.00;0.00;;;18.80;99.90;;;;;;5085754;28;20840;-68
2022/10/13 13:03:28;;;;;;;0.00;0.00;;;;;;;;;;5067135;28;20206;-68
2022/10/13 13:06:08;;;;;;;0.00;0.00;;;;;;;;;;5081136;28;20207;-68
2022/10/13 13:08:35;;;;;;;0.00;0.00;;;;;;;;;;5066777;28;20284;-68
2022/10/13 13:11:03;;;;;;;0.00;0.00;;;;;;;;;;5065055;28;20694;-68
2022/10/13 13:13:31;;;;;;;0.00;0.00;;;;;;;;;;5070750;28;20569;-68
2022/10/13 13:16:13;;;;;;;0.00;0.00;;;;;;;;;;5067953;28;20190;-67
2022/10/13 13:18:43;;;;;;;0.00;0.00;;;;;;;;;;5084277;28;20226;-68
2022/10/13 13:21:13;;;;;;;0.00;0.00;;;;;;;;;;5066210;28;20319;-68
2022/10/13 13:23:42;;;;;;;0.00;0.00;;;;;;;;;;5100504;27;20206;-68
2022/10/13 13:26:14;;;;;;;0.00;0.00;;;;;;;;;;5069642;28;20356;-69
2022/10/13 13:28:44;;;;;;;0.00;0.00;;;;;;;;;;5066096;28;20249;-66
2022/10/13 13:31:14;;;;;;;0.00;0.00;;;;;;;;;;5067223;28;20187;-67
2022/10/13 13:33:42;;;;;;;0.00;0.00;;;;;;;;;;5061920;28;20280;-68
2022/10/13 13:36:14;;;;;;;0.00;0.00;;;;;;;;;;5064434;28;20216;-66
2022/10/13 13:38:43;;;;;;;0.00;0.00;;;;;;;;;;5069000;28;20387;-68
2022/10/13 13:41:12;;;;;;;0.00;0.00;;;;;;;;;;5067974;28;20206;-68
2022/10/13 13:43:39;;;;;;;0.00;0.00;;;;;;;;;;5064907;28;20203;-68
2022/10/13 13:46:07;;;;;;;0.00;0.00;;;;;;;;;;5068144;28;20244;-68
2022/10/13 13:48:35;;;;;;;0.00;0.00;;;;;;;;;;5067259;28;20256;-67
2022/10/13 13:51:04;;;;;;;0.00;0.00;;;;;;;;;;5064263;28;20212;-67
2022/10/13 13:53:31;;;;;;;0.00;0.00;;;;;;;;;;5063769;28;20662;-68
2022/10/13 13:55:59;;;;;;;0.00;0.00;;;;;;;;;;5067710;28;20194;-68
2022/10/13 13:58:26;;;;;;;0.00;0.00;;;;;;;;;;5068545;28;20225;-68
2022/10/13 14:00:53;;;;;;;0.00;0.00;;;;;;;;;;5064609;28;20189;-67
2022/10/13 14:03:21;;;;;;;0.00;0.00;;;;;;;;;;5100263;27;20209;-66
2022/10/13 14:05:48;;;;;;;0.00;0.00;;;;;;;;;;5066340;28;20206;-68
2022/10/13 14:08:20;;;;;;;0.00;0.00;;;;;;;;;;5069509;28;20226;-67
2022/10/13 14:10:48;;;;;;;0.00;0.00;;;;;;;;;;5065891;28;20203;-67
2022/10/13 14:13:18;;;;;;;0.00;0.00;;;;;;;;;;5062892;28;20226;-68
2022/10/13 14:15:45;;;;;;;0.00;0.00;;;;;;;;;;5066091;28;20212;-68
2022/10/13 14:18:15;;;;;;;0.00;0.00;;;;;;;;;;5067306;28;20222;-67
2022/10/13 14:20:42;;;;;;;0.00;0.00;;;;;;;;;;5065585;28;20213;-68
2022/10/13 14:23:09;;;;;;;0.00;0.00;;;;;;;;;;5065847;28;20257;-68
2022/10/13 14:25:39;;;;;;;0.00;0.00;;;;;;;;;;5065817;28;20214;-66
2022/10/13 14:28:07;;;;;;;0.00;0.00;;;;;;;;;;5064214;28;20230;-67
2022/10/13 14:30:35;;;;;;;0.00;0.00;;;;;;;;;;5096267;27;20213;-68
2022/10/13 14:33:03;;;;;;;0.00;0.00;;;;;;;;;;5061739;28;20230;-67
2022/10/13 14:35:31;;;;;;;0.00;0.00;;;;;;;;;;5065029;28;20194;-67
2022/10/13 14:37:59;;;;;;;0.00;0.00;;;;;;;;;;5064837;28;20226;-69
2022/10/13 14:40:26;;;;;;;0.00;0.00;;;;;;;;;;5063394;28;20343;-66
2022/10/13 14:42:55;;;;;;;0.00;0.00;;;;;;;;;;5068490;28;20255;-67
2022/10/13 14:45:22;;;;;;;0.00;0.00;;;;;;;;;;5068725;28;20214;-68
2022/10/13 14:47:52;;;;;;;0.00;0.00;;;;;;;;;;5065106;28;20222;-67
2022/10/13 14:50:19;;;;;;;0.00;0.00;;;;;;;;;;5063727;28;20205;-67
2022/10/13 14:52:52;;;;;;;0.00;0.00;;;;;;;;;;5059963;28;20234;-66